Crossville, TN (38572)

6:50 PM CST on December 27, 2014 (GMT -0600)
RAWS CROSSVILLE AREA OFFICE TN US | Change Station
CLOSE
Current Station
Personal Weather Station
Location: Crossville, TN
Elevation: 1770 ft
Nearby Weather Stations

Elev 1770 ft 35.92 °N, 85.00 °W | Updated 44 minutes ago

Overcast
Overcast
51 °F
Feels Like 51 °F
N
2
Wind Variable Wind from SW
Gusts 10.0 mph

Today
High -- | Low -- °F
--% Chance of Precip.
Yesterday
High -- | Low -- °F
Precip. -- in
6:49 AM 4:33 PM
Waxing Crescent, 42% visible
Pressure 30.15 in
Visibility 10.0 miles
Clouds Overcast 2600 ft
Dew Point 36 °F
Humidity 57%
Rainfall 0.00 in
Snow Depth Not available.
UV 0 out of 12
Pollen .30 out of 12
Air Quality Not available.
Flu Activity Not available.
METAR KCSV 272353Z AUTO 21004KT 10SM OVC026 11/02 A3016 RMK AO2 SLP210 T01060022 10128 20106 55001

More Conditions Fewer Conditions

Pressure 30.15 in
Visibility 10.0 miles
Clouds Overcast 2600 ft
Dew Point 36 °F
Humidity 57%
Rainfall 0.00 in
Snow Depth Not available.
UV 0 out of 12
Pollen .30 out of 12
Air Quality Not available.
Flu Activity Not available.
METAR KCSV 272353Z AUTO 21004KT 10SM OVC026 11/02 A3016 RMK AO2 SLP210 T01060022 10128 20106 55001

More Conditions Fewer Conditions

10-Day Weather Forecast

Almanac

Astronomy

Dec. 27, 2014 Rise Set
Actual Time
Civil Twilight
Nautical Twilight
Astronomical Twilight
Moon
Length of Visible Light
Length of Day
Tomorrow will be .
, % of the Moon is Illuminated

Today's Extremes

State Highs State Lows

Community

WunderPhotos

Upload Photos

1,781,117 photos uploaded!

WunderBlogs® & News

Nearby

Air Quality

  Air Quality AQ Index Pollutant
Not available.

Snow Depth

Station Depth Elevation

Earthquake Activity

City Distance Mag. Time & Date
Minimum magnitude displayed is 2.5.

Coastal Water Temperatures

Place Temperature

Nearby Weather Stations